sensor_id;sensor_type;location;lat;lon;timestamp;P1;durP1;ratioP1;P2;durP2;ratioP2
18251;SDS011;26917;52.328;20.878;2023-04-01T00:15:27;39.13;;;19.08;;
18251;SDS011;26917;52.328;20.878;2023-04-01T00:23:25;34.53;;;19.00;;
18251;SDS011;26917;52.328;20.878;2023-04-01T00:31:12;37.05;;;19.45;;
18251;SDS011;26917;52.328;20.878;2023-04-01T00:38:14;34.95;;;18.77;;
18251;SDS011;26917;52.328;20.878;2023-04-01T00:42:08;40.25;;;20.13;;
18251;SDS011;26917;52.328;20.878;2023-04-01T00:44:48;38.05;;;19.80;;
18251;SDS011;26917;52.328;20.878;2023-04-01T00:47:33;35.70;;;20.80;;
18251;SDS011;26917;52.328;20.878;2023-04-01T00:50:02;36.78;;;20.75;;
18251;SDS011;26917;52.328;20.878;2023-04-01T00:58:57;41.75;;;21.95;;
18251;SDS011;26917;52.328;20.878;2023-04-01T01:09:32;39.13;;;20.65;;
18251;SDS011;26917;52.328;20.878;2023-04-01T01:20:29;37.50;;;19.40;;
18251;SDS011;26917;52.328;20.878;2023-04-01T01:32:58;46.53;;;22.13;;
18251;SDS011;26917;52.328;20.878;2023-04-01T01:35:36;45.78;;;21.45;;
18251;SDS011;26917;52.328;20.878;2023-04-01T01:38:16;46.72;;;22.85;;
18251;SDS011;26917;52.328;20.878;2023-04-01T01:41:07;43.55;;;22.67;;
18251;SDS011;26917;52.328;20.878;2023-04-01T01:43:38;49.58;;;23.27;;
18251;SDS011;26917;52.328;20.878;2023-04-01T01:46:12;46.25;;;23.60;;
18251;SDS011;26917;52.328;20.878;2023-04-01T01:48:43;45.50;;;23.10;;
18251;SDS011;26917;52.328;20.878;2023-04-01T01:51:15;47.38;;;23.13;;
18251;SDS011;26917;52.328;20.878;2023-04-01T01:53:44;44.80;;;21.95;;
18251;SDS011;26917;52.328;20.878;2023-04-01T01:56:16;39.67;;;21.65;;
18251;SDS011;26917;52.328;20.878;2023-04-01T01:58:47;42.25;;;22.02;;
18251;SDS011;26917;52.328;20.878;2023-04-01T02:01:20;40.45;;;22.20;;
18251;SDS011;26917;52.328;20.878;2023-04-01T02:03:59;40.28;;;20.60;;
18251;SDS011;26917;52.328;20.878;2023-04-01T02:06:30;42.15;;;21.45;;
18251;SDS011;26917;52.328;20.878;2023-04-01T02:09:08;48.53;;;22.88;;
18251;SDS011;26917;52.328;20.878;2023-04-01T02:11:40;49.00;;;22.58;;
18251;SDS011;26917;52.328;20.878;2023-04-01T02:14:17;44.47;;;23.75;;
18251;SDS011;26917;52.328;20.878;2023-04-01T02:16:49;53.80;;;25.73;;
18251;SDS011;26917;52.328;20.878;2023-04-01T02:19:24;55.60;;;24.75;;
18251;SDS011;26917;52.328;20.878;2023-04-01T02:22:03;49.58;;;24.88;;
18251;SDS011;26917;52.328;20.878;2023-04-01T02:24:39;51.42;;;26.17;;
18251;SDS011;26917;52.328;20.878;2023-04-01T02:27:10;55.85;;;25.45;;
18251;SDS011;26917;52.328;20.878;2023-04-01T02:29:40;54.38;;;26.98;;
18251;SDS011;26917;52.328;20.878;2023-04-01T02:32:08;61.83;;;28.90;;
18251;SDS011;26917;52.328;20.878;2023-04-01T02:34:40;58.08;;;27.10;;
18251;SDS011;26917;52.328;20.878;2023-04-01T02:37:11;59.45;;;27.88;;
18251;SDS011;26917;52.328;20.878;2023-04-01T02:39:41;50.60;;;26.38;;
18251;SDS011;26917;52.328;20.878;2023-04-01T02:42:10;64.13;;;27.35;;
18251;SDS011;26917;52.328;20.878;2023-04-01T02:44:38;56.17;;;26.98;;
18251;SDS011;26917;52.328;20.878;2023-04-01T02:47:06;58.70;;;25.90;;
18251;SDS011;26917;52.328;20.878;2023-04-01T02:49:35;57.63;;;25.52;;
18251;SDS011;26917;52.328;20.878;2023-04-01T02:52:04;63.60;;;27.50;;
18251;SDS011;26917;52.328;20.878;2023-04-01T02:54:33;59.35;;;27.30;;
18251;SDS011;26917;52.328;20.878;2023-04-01T02:57:02;56.72;;;26.95;;
18251;SDS011;26917;52.328;20.878;2023-04-01T02:59:30;61.35;;;27.05;;
18251;SDS011;26917;52.328;20.878;2023-04-01T03:01:58;59.70;;;26.90;;
18251;SDS011;26917;52.328;20.878;2023-04-01T03:04:27;61.42;;;26.58;;
18251;SDS011;26917;52.328;20.878;2023-04-01T03:06:55;66.63;;;28.38;;
18251;SDS011;26917;52.328;20.878;2023-04-01T03:09:24;55.30;;;27.75;;
18251;SDS011;26917;52.328;20.878;2023-04-01T03:11:53;61.17;;;26.30;;
18251;SDS011;26917;52.328;20.878;2023-04-01T03:14:22;58.20;;;26.33;;
18251;SDS011;26917;52.328;20.878;2023-04-01T03:16:50;57.72;;;26.13;;
18251;SDS011;26917;52.328;20.878;2023-04-01T03:19:19;57.95;;;27.15;;
18251;SDS011;26917;52.328;20.878;2023-04-01T03:21:47;56.75;;;26.63;;
18251;SDS011;26917;52.328;20.878;2023-04-01T03:24:15;56.00;;;26.73;;
18251;SDS011;26917;52.328;20.878;2023-04-01T03:26:44;59.13;;;25.35;;
18251;SDS011;26917;52.328;20.878;2023-04-01T03:29:13;60.63;;;27.85;;
18251;SDS011;26917;52.328;20.878;2023-04-01T03:31:43;59.67;;;28.08;;
18251;SDS011;26917;52.328;20.878;2023-04-01T03:34:11;57.53;;;27.75;;
18251;SDS011;26917;52.328;20.878;2023-04-01T03:36:40;60.45;;;28.55;;
18251;SDS011;26917;52.328;20.878;2023-04-01T03:39:08;64.10;;;29.05;;
18251;SDS011;26917;52.328;20.878;2023-04-01T03:41:40;65.50;;;29.27;;
18251;SDS011;26917;52.328;20.878;2023-04-01T03:44:08;70.65;;;30.20;;
18251;SDS011;26917;52.328;20.878;2023-04-01T03:46:38;72.43;;;31.77;;
18251;SDS011;26917;52.328;20.878;2023-04-01T03:49:07;63.33;;;30.67;;
18251;SDS011;26917;52.328;20.878;2023-04-01T03:51:38;67.18;;;30.92;;
18251;SDS011;26917;52.328;20.878;2023-04-01T03:54:06;67.25;;;31.05;;
18251;SDS011;26917;52.328;20.878;2023-04-01T03:56:35;69.80;;;30.67;;
18251;SDS011;26917;52.328;20.878;2023-04-01T03:59:05;63.60;;;29.13;;
18251;SDS011;26917;52.328;20.878;2023-04-01T04:01:34;62.10;;;30.17;;
18251;SDS011;26917;52.328;20.878;2023-04-01T04:04:04;68.90;;;30.88;;
18251;SDS011;26917;52.328;20.878;2023-04-01T04:06:33;60.80;;;27.90;;
18251;SDS011;26917;52.328;20.878;2023-04-01T04:09:01;51.47;;;26.52;;
18251;SDS011;26917;52.328;20.878;2023-04-01T04:11:30;54.28;;;28.45;;
18251;SDS011;26917;52.328;20.878;2023-04-01T04:14:01;62.67;;;27.90;;
18251;SDS011;26917;52.328;20.878;2023-04-01T04:16:29;53.35;;;26.20;;
18251;SDS011;26917;52.328;20.878;2023-04-01T04:19:04;50.70;;;24.70;;
18251;SDS011;26917;52.328;20.878;2023-04-01T04:21:32;51.20;;;24.40;;
18251;SDS011;26917;52.328;20.878;2023-04-01T04:24:01;53.33;;;23.60;;
18251;SDS011;26917;52.328;20.878;2023-04-01T04:26:49;46.95;;;22.92;;
18251;SDS011;26917;52.328;20.878;2023-04-01T04:29:18;46.70;;;24.27;;
18251;SDS011;26917;52.328;20.878;2023-04-01T04:31:46;42.92;;;23.08;;
18251;SDS011;26917;52.328;20.878;2023-04-01T04:34:16;43.92;;;20.90;;
18251;SDS011;26917;52.328;20.878;2023-04-01T04:36:45;51.80;;;23.25;;
18251;SDS011;26917;52.328;20.878;2023-04-01T04:39:31;44.45;;;22.40;;
18251;SDS011;26917;52.328;20.878;2023-04-01T04:42:00;48.97;;;22.13;;
18251;SDS011;26917;52.328;20.878;2023-04-01T04:44:28;46.53;;;22.15;;
18251;SDS011;26917;52.328;20.878;2023-04-01T04:46:58;47.35;;;21.48;;
18251;SDS011;26917;52.328;20.878;2023-04-01T04:49:28;44.28;;;21.27;;
18251;SDS011;26917;52.328;20.878;2023-04-01T04:52:03;42.58;;;21.25;;
18251;SDS011;26917;52.328;20.878;2023-04-01T04:54:31;41.55;;;21.02;;
18251;SDS011;26917;52.328;20.878;2023-04-01T04:57:02;42.70;;;22.02;;
18251;SDS011;26917;52.328;20.878;2023-04-01T04:59:35;41.20;;;20.45;;
18251;SDS011;26917;52.328;20.878;2023-04-01T05:02:33;42.50;;;21.10;;
18251;SDS011;26917;52.328;20.878;2023-04-01T05:05:03;40.55;;;20.73;;
18251;SDS011;26917;52.328;20.878;2023-04-01T05:07:33;41.80;;;21.05;;
18251;SDS011;26917;52.328;20.878;2023-04-01T05:10:01;43.65;;;21.15;;
18251;SDS011;26917;52.328;20.878;2023-04-01T05:12:30;40.00;;;20.35;;
18251;SDS011;26917;52.328;20.878;2023-04-01T05:15:02;40.42;;;19.67;;
18251;SDS011;26917;52.328;20.878;2023-04-01T05:17:31;39.90;;;20.05;;
18251;SDS011;26917;52.328;20.878;2023-04-01T05:20:03;37.78;;;20.83;;
18251;SDS011;26917;52.328;20.878;2023-04-01T05:22:32;37.88;;;19.40;;
18251;SDS011;26917;52.328;20.878;2023-04-01T05:25:01;36.08;;;18.17;;
18251;SDS011;26917;52.328;20.878;2023-04-01T05:27:29;35.67;;;18.80;;
18251;SDS011;26917;52.328;20.878;2023-04-01T05:29:59;39.30;;;18.95;;
18251;SDS011;26917;52.328;20.878;2023-04-01T05:32:48;35.97;;;19.92;;
18251;SDS011;26917;52.328;20.878;2023-04-01T05:35:18;39.80;;;18.15;;
18251;SDS011;26917;52.328;20.878;2023-04-01T05:37:46;36.83;;;19.65;;
18251;SDS011;26917;52.328;20.878;2023-04-01T05:40:15;37.45;;;18.88;;
18251;SDS011;26917;52.328;20.878;2023-04-01T05:42:43;32.65;;;17.67;;
18251;SDS011;26917;52.328;20.878;2023-04-01T05:45:12;39.03;;;18.45;;
18251;SDS011;26917;52.328;20.878;2023-04-01T05:48:11;38.22;;;18.73;;
18251;SDS011;26917;52.328;20.878;2023-04-01T05:50:41;38.22;;;17.92;;
18251;SDS011;26917;52.328;20.878;2023-04-01T05:53:11;34.22;;;18.52;;
18251;SDS011;26917;52.328;20.878;2023-04-01T05:55:42;38.42;;;18.98;;
18251;SDS011;26917;52.328;20.878;2023-04-01T05:58:10;33.55;;;18.35;;
18251;SDS011;26917;52.328;20.878;2023-04-01T06:00:41;35.03;;;18.58;;
18251;SDS011;26917;52.328;20.878;2023-04-01T06:03:12;33.92;;;18.63;;
18251;SDS011;26917;52.328;20.878;2023-04-01T06:05:43;30.90;;;16.10;;
18251;SDS011;26917;52.328;20.878;2023-04-01T06:08:13;32.15;;;16.65;;
18251;SDS011;26917;52.328;20.878;2023-04-01T06:10:55;30.30;;;15.40;;
18251;SDS011;26917;52.328;20.878;2023-04-01T06:13:36;27.73;;;14.73;;
18251;SDS011;26917;52.328;20.878;2023-04-01T06:16:18;28.63;;;16.42;;
18251;SDS011;26917;52.328;20.878;2023-04-01T06:19:05;27.80;;;14.80;;
18251;SDS011;26917;52.328;20.878;2023-04-01T06:28:07;18.45;;;12.15;;
18251;SDS011;26917;52.328;20.878;2023-04-01T06:31:01;22.92;;;12.07;;
18251;SDS011;26917;52.328;20.878;2023-04-01T06:33:42;18.02;;;11.77;;
18251;SDS011;26917;52.328;20.878;2023-04-01T06:36:24;19.02;;;11.65;;
18251;SDS011;26917;52.328;20.878;2023-04-01T06:39:23;19.17;;;11.15;;
18251;SDS011;26917;52.328;20.878;2023-04-01T06:42:16;16.52;;;10.50;;
18251;SDS011;26917;52.328;20.878;2023-04-01T06:45:07;19.90;;;10.27;;
18251;SDS011;26917;52.328;20.878;2023-04-01T06:48:09;13.57;;;9.23;;
18251;SDS011;26917;52.328;20.878;2023-04-01T06:51:10;17.10;;;9.85;;
18251;SDS011;26917;52.328;20.878;2023-04-01T06:54:09;15.30;;;9.75;;
18251;SDS011;26917;52.328;20.878;2023-04-01T06:57:00;16.17;;;8.93;;
18251;SDS011;26917;52.328;20.878;2023-04-01T06:59:37;13.30;;;9.35;;
18251;SDS011;26917;52.328;20.878;2023-04-01T07:02:12;10.95;;;8.75;;
18251;SDS011;26917;52.328;20.878;2023-04-01T07:04:50;10.23;;;7.78;;
18251;SDS011;26917;52.328;20.878;2023-04-01T07:07:24;11.40;;;8.30;;
18251;SDS011;26917;52.328;20.878;2023-04-01T07:10:02;10.48;;;7.25;;
18251;SDS011;26917;52.328;20.878;2023-04-01T07:12:56;9.13;;;7.63;;
18251;SDS011;26917;52.328;20.878;2023-04-01T07:15:54;10.25;;;5.97;;
18251;SDS011;26917;52.328;20.878;2023-04-01T07:18:30;10.57;;;6.75;;
18251;SDS011;26917;52.328;20.878;2023-04-01T07:21:04;7.43;;;5.47;;
18251;SDS011;26917;52.328;20.878;2023-04-01T07:23:44;7.78;;;6.18;;
18251;SDS011;26917;52.328;20.878;2023-04-01T07:26:43;7.30;;;5.80;;
18251;SDS011;26917;52.328;20.878;2023-04-01T07:29:17;7.13;;;5.63;;
18251;SDS011;26917;52.328;20.878;2023-04-01T07:32:05;8.30;;;5.70;;
18251;SDS011;26917;52.328;20.878;2023-04-01T07:34:44;11.00;;;6.00;;
18251;SDS011;26917;52.328;20.878;2023-04-01T07:37:21;11.23;;;7.97;;
18251;SDS011;26917;52.328;20.878;2023-04-01T07:39:56;13.35;;;9.23;;
18251;SDS011;26917;52.328;20.878;2023-04-01T07:42:40;13.85;;;9.45;;
18251;SDS011;26917;52.328;20.878;2023-04-01T07:45:18;17.10;;;11.43;;
18251;SDS011;26917;52.328;20.878;2023-04-01T07:47:58;16.33;;;11.30;;
18251;SDS011;26917;52.328;20.878;2023-04-01T07:50:37;16.70;;;10.93;;
18251;SDS011;26917;52.328;20.878;2023-04-01T07:53:13;17.95;;;11.70;;
18251;SDS011;26917;52.328;20.878;2023-04-01T07:55:50;16.75;;;11.50;;
18251;SDS011;26917;52.328;20.878;2023-04-01T07:58:31;19.00;;;12.05;;
18251;SDS011;26917;52.328;20.878;2023-04-01T08:01:11;19.88;;;12.93;;
18251;SDS011;26917;52.328;20.878;2023-04-01T08:03:53;20.77;;;12.18;;
18251;SDS011;26917;52.328;20.878;2023-04-01T08:06:35;20.83;;;12.73;;
18251;SDS011;26917;52.328;20.878;2023-04-01T08:09:13;22.20;;;13.52;;
18251;SDS011;26917;52.328;20.878;2023-04-01T08:12:21;26.02;;;15.43;;
18251;SDS011;26917;52.328;20.878;2023-04-01T08:15:23;27.15;;;15.75;;
18251;SDS011;26917;52.328;20.878;2023-04-01T08:18:09;23.58;;;15.25;;
18251;SDS011;26917;52.328;20.878;2023-04-01T08:20:50;24.60;;;14.85;;
18251;SDS011;26917;52.328;20.878;2023-04-01T08:23:22;24.42;;;14.57;;
18251;SDS011;26917;52.328;20.878;2023-04-01T08:25:56;26.15;;;16.02;;
18251;SDS011;26917;52.328;20.878;2023-04-01T08:28:35;21.38;;;13.68;;
18251;SDS011;26917;52.328;20.878;2023-04-01T08:31:11;23.42;;;14.25;;
18251;SDS011;26917;52.328;20.878;2023-04-01T08:33:44;22.33;;;13.68;;
18251;SDS011;26917;52.328;20.878;2023-04-01T08:36:18;26.38;;;14.55;;
18251;SDS011;26917;52.328;20.878;2023-04-01T08:39:03;24.33;;;14.65;;
18251;SDS011;26917;52.328;20.878;2023-04-01T08:45:22;30.73;;;17.73;;
18251;SDS011;26917;52.328;20.878;2023-04-01T08:48:08;26.38;;;17.15;;
18251;SDS011;26917;52.328;20.878;2023-04-01T08:50:56;30.15;;;17.63;;
18251;SDS011;26917;52.328;20.878;2023-04-01T08:56:47;30.92;;;18.17;;
18251;SDS011;26917;52.328;20.878;2023-04-01T09:02:50;22.80;;;14.43;;
18251;SDS011;26917;52.328;20.878;2023-04-01T09:05:47;23.17;;;14.52;;
18251;SDS011;26917;52.328;20.878;2023-04-01T09:08:46;21.77;;;12.98;;
18251;SDS011;26917;52.328;20.878;2023-04-01T09:11:31;17.70;;;12.45;;
18251;SDS011;26917;52.328;20.878;2023-04-01T09:14:36;17.08;;;11.80;;
18251;SDS011;26917;52.328;20.878;2023-04-01T09:17:36;17.35;;;11.38;;
18251;SDS011;26917;52.328;20.878;2023-04-01T09:20:27;15.93;;;10.63;;
18251;SDS011;26917;52.328;20.878;2023-04-01T09:26:08;17.65;;;11.10;;
18251;SDS011;26917;52.328;20.878;2023-04-01T09:29:05;15.90;;;10.45;;
18251;SDS011;26917;52.328;20.878;2023-04-01T09:35:05;11.77;;;8.02;;
18251;SDS011;26917;52.328;20.878;2023-04-01T09:37:51;10.13;;;7.22;;
18251;SDS011;26917;52.328;20.878;2023-04-01T09:40:26;9.60;;;6.75;;
18251;SDS011;26917;52.328;20.878;2023-04-01T09:43:15;11.48;;;7.53;;
18251;SDS011;26917;52.328;20.878;2023-04-01T09:46:11;6.20;;;4.95;;
18251;SDS011;26917;52.328;20.878;2023-04-01T09:48:58;7.45;;;5.18;;
18251;SDS011;26917;52.328;20.878;2023-04-01T09:51:48;6.15;;;5.22;;
18251;SDS011;26917;52.328;20.878;2023-04-01T09:54:32;7.05;;;5.68;;
18251;SDS011;26917;52.328;20.878;2023-04-01T10:04:17;8.77;;;5.65;;
18251;SDS011;26917;52.328;20.878;2023-04-01T10:10:29;7.43;;;6.43;;
18251;SDS011;26917;52.328;20.878;2023-04-01T10:20:14;6.07;;;4.80;;
18251;SDS011;26917;52.328;20.878;2023-04-01T10:23:20;6.40;;;5.55;;
18251;SDS011;26917;52.328;20.878;2023-04-01T10:26:21;7.10;;;5.00;;
18251;SDS011;26917;52.328;20.878;2023-04-01T10:29:37;6.22;;;5.28;;
18251;SDS011;26917;52.328;20.878;2023-04-01T10:32:36;4.85;;;4.18;;
18251;SDS011;26917;52.328;20.878;2023-04-01T10:48:45;5.03;;;3.92;;
18251;SDS011;26917;52.328;20.878;2023-04-01T10:51:35;5.78;;;3.80;;
18251;SDS011;26917;52.328;20.878;2023-04-01T10:54:47;4.18;;;3.78;;
18251;SDS011;26917;52.328;20.878;2023-04-01T10:57:46;4.65;;;3.67;;
18251;SDS011;26917;52.328;20.878;2023-04-01T11:04:46;4.82;;;4.10;;
18251;SDS011;26917;52.328;20.878;2023-04-01T11:23:39;3.60;;;3.30;;
18251;SDS011;26917;52.328;20.878;2023-04-01T11:26:38;4.57;;;3.00;;
18251;SDS011;26917;52.328;20.878;2023-04-01T11:29:59;3.60;;;3.33;;
18251;SDS011;26917;52.328;20.878;2023-04-01T11:32:50;3.25;;;2.95;;
18251;SDS011;26917;52.328;20.878;2023-04-01T11:35:32;3.30;;;3.00;;
18251;SDS011;26917;52.328;20.878;2023-04-01T11:38:17;3.45;;;3.15;;
18251;SDS011;26917;52.328;20.878;2023-04-01T11:40:59;2.83;;;2.63;;
18251;SDS011;26917;52.328;20.878;2023-04-01T11:44:13;4.85;;;2.65;;
18251;SDS011;26917;52.328;20.878;2023-04-01T11:50:27;2.83;;;2.63;;
18251;SDS011;26917;52.328;20.878;2023-04-01T11:53:18;2.80;;;2.60;;
18251;SDS011;26917;52.328;20.878;2023-04-01T11:55:54;2.65;;;2.55;;
18251;SDS011;26917;52.328;20.878;2023-04-01T12:01:51;3.53;;;3.05;;
18251;SDS011;26917;52.328;20.878;2023-04-01T12:04:52;3.60;;;3.30;;
18251;SDS011;26917;52.328;20.878;2023-04-01T12:11:14;3.47;;;2.78;;
18251;SDS011;26917;52.328;20.878;2023-04-01T12:14:08;3.10;;;2.80;;
18251;SDS011;26917;52.328;20.878;2023-04-01T12:17:07;2.97;;;2.78;;
18251;SDS011;26917;52.328;20.878;2023-04-01T12:19:49;2.60;;;2.50;;
18251;SDS011;26917;52.328;20.878;2023-04-01T12:22:50;3.30;;;3.00;;
18251;SDS011;26917;52.328;20.878;2023-04-01T12:25:38;2.67;;;2.55;;
18251;SDS011;26917;52.328;20.878;2023-04-01T12:28:58;2.95;;;2.75;;
18251;SDS011;26917;52.328;20.878;2023-04-01T12:32:21;2.60;;;2.40;;
18251;SDS011;26917;52.328;20.878;2023-04-01T12:37:50;4.03;;;3.50;;
18251;SDS011;26917;52.328;20.878;2023-04-01T12:40:44;3.67;;;3.35;;
18251;SDS011;26917;52.328;20.878;2023-04-01T12:43:40;3.70;;;3.40;;
18251;SDS011;26917;52.328;20.878;2023-04-01T12:46:45;3.88;;;3.47;;
18251;SDS011;26917;52.328;20.878;2023-04-01T12:49:54;5.22;;;3.60;;
18251;SDS011;26917;52.328;20.878;2023-04-01T12:52:34;4.72;;;3.50;;
18251;SDS011;26917;52.328;20.878;2023-04-01T13:01:26;4.00;;;2.78;;
18251;SDS011;26917;52.328;20.878;2023-04-01T13:04:12;3.03;;;2.80;;
18251;SDS011;26917;52.328;20.878;2023-04-01T13:07:14;3.33;;;3.00;;
18251;SDS011;26917;52.328;20.878;2023-04-01T13:10:12;2.90;;;2.60;;
18251;SDS011;26917;52.328;20.878;2023-04-01T13:12:56;3.80;;;3.50;;
18251;SDS011;26917;52.328;20.878;2023-04-01T13:15:40;2.95;;;2.67;;
18251;SDS011;26917;52.328;20.878;2023-04-01T13:18:21;3.53;;;3.05;;
18251;SDS011;26917;52.328;20.878;2023-04-01T13:21:08;4.40;;;2.50;;
18251;SDS011;26917;52.328;20.878;2023-04-01T13:23:48;2.80;;;2.60;;
18251;SDS011;26917;52.328;20.878;2023-04-01T13:29:13;4.32;;;3.53;;
18251;SDS011;26917;52.328;20.878;2023-04-01T13:31:50;4.93;;;3.55;;
18251;SDS011;26917;52.328;20.878;2023-04-01T13:34:39;5.68;;;3.70;;
18251;SDS011;26917;52.328;20.878;2023-04-01T13:37:30;4.03;;;3.58;;
18251;SDS011;26917;52.328;20.878;2023-04-01T13:40:21;5.72;;;3.80;;
18251;SDS011;26917;52.328;20.878;2023-04-01T13:43:02;4.72;;;3.50;;
18251;SDS011;26917;52.328;20.878;2023-04-01T13:45:40;5.70;;;4.28;;
18251;SDS011;26917;52.328;20.878;2023-04-01T13:51:56;4.57;;;4.15;;
18251;SDS011;26917;52.328;20.878;2023-04-01T13:54:50;4.43;;;4.03;;
18251;SDS011;26917;52.328;20.878;2023-04-01T14:00:48;5.60;;;4.75;;
18251;SDS011;26917;52.328;20.878;2023-04-01T14:03:50;5.63;;;4.85;;
18251;SDS011;26917;52.328;20.878;2023-04-01T14:06:34;5.28;;;4.68;;
18251;SDS011;26917;52.328;20.878;2023-04-01T14:09:15;6.68;;;5.32;;
18251;SDS011;26917;52.328;20.878;2023-04-01T14:12:13;7.97;;;5.72;;
18251;SDS011;26917;52.328;20.878;2023-04-01T14:14:58;7.35;;;5.20;;
18251;SDS011;26917;52.328;20.878;2023-04-01T14:17:41;5.82;;;4.72;;
18251;SDS011;26917;52.328;20.878;2023-04-01T14:20:28;7.80;;;7.03;;
18251;SDS011;26917;52.328;20.878;2023-04-01T14:26:35;7.10;;;6.40;;
18251;SDS011;26917;52.328;20.878;2023-04-01T14:29:29;7.03;;;5.93;;
18251;SDS011;26917;52.328;20.878;2023-04-01T14:32:08;9.68;;;6.72;;
18251;SDS011;26917;52.328;20.878;2023-04-01T14:34:58;5.38;;;4.88;;
18251;SDS011;26917;52.328;20.878;2023-04-01T14:40:49;5.20;;;4.60;;
18251;SDS011;26917;52.328;20.878;2023-04-01T14:43:38;5.25;;;4.65;;
18251;SDS011;26917;52.328;20.878;2023-04-01T14:49:43;6.72;;;5.22;;
18251;SDS011;26917;52.328;20.878;2023-04-01T14:52:15;6.70;;;5.13;;
18251;SDS011;26917;52.328;20.878;2023-04-01T14:54:50;8.23;;;6.00;;
18251;SDS011;26917;52.328;20.878;2023-04-01T14:57:23;6.72;;;4.93;;
18251;SDS011;26917;52.328;20.878;2023-04-01T14:59:53;7.20;;;4.75;;
18251;SDS011;26917;52.328;20.878;2023-04-01T15:02:45;6.85;;;5.25;;
18251;SDS011;26917;52.328;20.878;2023-04-01T15:05:27;6.53;;;5.47;;
18251;SDS011;26917;52.328;20.878;2023-04-01T15:08:08;7.28;;;5.88;;
18251;SDS011;26917;52.328;20.878;2023-04-01T15:10:44;11.52;;;8.57;;
18251;SDS011;26917;52.328;20.878;2023-04-01T15:13:49;13.82;;;10.43;;
18251;SDS011;26917;52.328;20.878;2023-04-01T15:16:40;10.82;;;8.07;;
18251;SDS011;26917;52.328;20.878;2023-04-01T15:19:18;10.95;;;7.32;;
18251;SDS011;26917;52.328;20.878;2023-04-01T15:25:00;8.30;;;4.80;;
18251;SDS011;26917;52.328;20.878;2023-04-01T15:27:43;13.15;;;5.93;;
18251;SDS011;26917;52.328;20.878;2023-04-01T15:30:21;8.85;;;5.95;;
18251;SDS011;26917;52.328;20.878;2023-04-01T15:33:06;14.23;;;5.75;;
18251;SDS011;26917;52.328;20.878;2023-04-01T15:36:02;13.45;;;6.80;;
18251;SDS011;26917;52.328;20.878;2023-04-01T15:38:39;13.60;;;7.78;;
18251;SDS011;26917;52.328;20.878;2023-04-01T15:41:14;17.02;;;8.13;;
18251;SDS011;26917;52.328;20.878;2023-04-01T15:43:47;16.05;;;8.43;;
18251;SDS011;26917;52.328;20.878;2023-04-01T15:49:16;13.27;;;7.57;;
18251;SDS011;26917;52.328;20.878;2023-04-01T15:52:02;14.18;;;7.13;;
18251;SDS011;26917;52.328;20.878;2023-04-01T15:54:46;10.60;;;7.97;;
18251;SDS011;26917;52.328;20.878;2023-04-01T15:57:36;13.77;;;7.95;;
18251;SDS011;26917;52.328;20.878;2023-04-01T16:00:11;18.13;;;10.20;;
18251;SDS011;26917;52.328;20.878;2023-04-01T16:02:53;12.63;;;7.80;;
18251;SDS011;26917;52.328;20.878;2023-04-01T16:05:41;13.57;;;7.57;;
18251;SDS011;26917;52.328;20.878;2023-04-01T16:08:39;11.18;;;7.35;;
18251;SDS011;26917;52.328;20.878;2023-04-01T16:11:46;8.80;;;6.75;;
18251;SDS011;26917;52.328;20.878;2023-04-01T16:14:28;9.65;;;6.50;;
18251;SDS011;26917;52.328;20.878;2023-04-01T16:17:11;7.70;;;5.82;;
18251;SDS011;26917;52.328;20.878;2023-04-01T16:19:59;9.52;;;5.50;;
18251;SDS011;26917;52.328;20.878;2023-04-01T16:22:31;7.68;;;5.60;;
18251;SDS011;26917;52.328;20.878;2023-04-01T16:25:14;10.13;;;5.95;;
18251;SDS011;26917;52.328;20.878;2023-04-01T16:28:03;8.85;;;6.13;;
18251;SDS011;26917;52.328;20.878;2023-04-01T16:30:44;9.45;;;6.18;;
18251;SDS011;26917;52.328;20.878;2023-04-01T16:33:19;10.50;;;6.60;;
18251;SDS011;26917;52.328;20.878;2023-04-01T16:35:53;8.60;;;6.40;;
18251;SDS011;26917;52.328;20.878;2023-04-01T16:38:26;7.40;;;5.97;;
18251;SDS011;26917;52.328;20.878;2023-04-01T16:41:11;8.27;;;6.47;;
18251;SDS011;26917;52.328;20.878;2023-04-01T16:43:57;8.98;;;6.30;;
18251;SDS011;26917;52.328;20.878;2023-04-01T16:46:38;10.68;;;6.13;;
18251;SDS011;26917;52.328;20.878;2023-04-01T16:49:23;9.27;;;6.85;;
18251;SDS011;26917;52.328;20.878;2023-04-01T16:52:03;9.57;;;6.20;;
18251;SDS011;26917;52.328;20.878;2023-04-01T16:54:43;9.48;;;6.40;;
18251;SDS011;26917;52.328;20.878;2023-04-01T16:57:17;8.80;;;5.72;;
18251;SDS011;26917;52.328;20.878;2023-04-01T16:59:55;11.32;;;6.32;;
18251;SDS011;26917;52.328;20.878;2023-04-01T17:02:33;8.00;;;5.65;;
18251;SDS011;26917;52.328;20.878;2023-04-01T17:05:06;6.82;;;5.90;;
18251;SDS011;26917;52.328;20.878;2023-04-01T17:07:45;6.90;;;5.85;;
18251;SDS011;26917;52.328;20.878;2023-04-01T17:10:28;7.95;;;5.95;;
18251;SDS011;26917;52.328;20.878;2023-04-01T17:13:15;9.23;;;6.55;;
18251;SDS011;26917;52.328;20.878;2023-04-01T17:16:04;9.38;;;6.32;;
18251;SDS011;26917;52.328;20.878;2023-04-01T17:18:59;7.97;;;5.72;;
18251;SDS011;26917;52.328;20.878;2023-04-01T17:21:51;9.77;;;6.05;;
18251;SDS011;26917;52.328;20.878;2023-04-01T17:24:31;8.68;;;6.28;;
18251;SDS011;26917;52.328;20.878;2023-04-01T17:27:16;7.97;;;6.10;;
18251;SDS011;26917;52.328;20.878;2023-04-01T17:30:02;9.60;;;6.68;;
18251;SDS011;26917;52.328;20.878;2023-04-01T17:32:47;10.00;;;7.28;;
18251;SDS011;26917;52.328;20.878;2023-04-01T17:35:27;10.90;;;6.50;;
18251;SDS011;26917;52.328;20.878;2023-04-01T17:38:03;9.52;;;6.40;;
18251;SDS011;26917;52.328;20.878;2023-04-01T17:40:44;9.50;;;7.10;;
18251;SDS011;26917;52.328;20.878;2023-04-01T17:43:26;7.88;;;6.00;;
18251;SDS011;26917;52.328;20.878;2023-04-01T17:46:02;9.63;;;6.55;;
18251;SDS011;26917;52.328;20.878;2023-04-01T17:48:41;7.43;;;5.60;;
18251;SDS011;26917;52.328;20.878;2023-04-01T17:51:21;10.63;;;7.10;;
18251;SDS011;26917;52.328;20.878;2023-04-01T17:53:59;10.93;;;7.18;;
18251;SDS011;26917;52.328;20.878;2023-04-01T17:56:38;8.95;;;6.97;;
18251;SDS011;26917;52.328;20.878;2023-04-01T17:59:18;10.50;;;8.05;;
18251;SDS011;26917;52.328;20.878;2023-04-01T18:01:54;11.18;;;7.70;;
18251;SDS011;26917;52.328;20.878;2023-04-01T18:04:37;11.68;;;7.70;;
18251;SDS011;26917;52.328;20.878;2023-04-01T18:07:30;10.52;;;7.15;;
18251;SDS011;26917;52.328;20.878;2023-04-01T18:10:29;10.27;;;8.00;;
18251;SDS011;26917;52.328;20.878;2023-04-01T18:13:10;13.27;;;8.25;;
18251;SDS011;26917;52.328;20.878;2023-04-01T18:16:04;13.02;;;8.73;;
18251;SDS011;26917;52.328;20.878;2023-04-01T18:18:50;11.65;;;8.07;;
18251;SDS011;26917;52.328;20.878;2023-04-01T18:21:29;10.52;;;7.43;;
18251;SDS011;26917;52.328;20.878;2023-04-01T18:24:11;11.25;;;8.20;;
18251;SDS011;26917;52.328;20.878;2023-04-01T18:26:47;13.40;;;8.95;;
18251;SDS011;26917;52.328;20.878;2023-04-01T18:29:30;14.23;;;8.35;;
18251;SDS011;26917;52.328;20.878;2023-04-01T18:32:11;13.45;;;9.55;;
18251;SDS011;26917;52.328;20.878;2023-04-01T18:34:51;10.27;;;8.30;;
18251;SDS011;26917;52.328;20.878;2023-04-01T18:37:29;14.23;;;8.73;;
18251;SDS011;26917;52.328;20.878;2023-04-01T18:40:04;13.75;;;8.63;;
18251;SDS011;26917;52.328;20.878;2023-04-01T18:42:46;20.15;;;8.35;;